No particular awareness of the weather is required.    There are no Weather-warnings


Meteo18 Weather Cam more information Meteo18 Weather Cam


Thunder radar more information blitzortung!


Rain radar more information rain snow radar


Visit our other weather sites:

Template documentation
and downloads

And another site



Weather Underground History page Text

Daily Summary for November 9, 2017 Units:  Both    English   Metric
« Previous Day
Next Day »
Daily Weekly Monthly Yearly Custom
  High: Low: Average:
Temperature: TemperatureC °F /  -17.8 °C 4.2 °F /  -15.4 °C 6.2 °F /  -14.3 °C
Dew Point: DewpointC °F /  -17.8 °C 3.3 °F /  -15.9 °C 4.4 °F /  -15.3 °C
Humidity: Humidity % 78 % 88 %
Wind Speed: WindSpeedKMH mph /  0 km/h - 0.9 mph /  1.4 km/h
Wind Gust: WindSpeedGustKMH mph /  0 km/h - -
Wind:- - SSW
Pressure: PressurehPa in /  0 hPa 1022.9 in /  34635.4 hPa -
Precipitation: 0.0 in /  0 mm    
Historical Graphs
 
 
Tabular Data for November 9, 2017
Time Temperature Dew Point Pressure Wind Wind Speed Wind Gust Humidity Rainfall Rate (Hourly)
TemperatureC °F /  -17.8 °C DewpointC °F /  -17.8 °C PressurehPa in /  0 hPa Calm     Humidity % HourlyPrecipMM in /  0 mm
00:02 5.4 °F /  -14.8 °C 4.5 °F /  -15.3 °C 1022.9 in /  34635.4 hPa Calm   1.6 mph /  2.6 km/h 94 % 0.0 in /  0 mm
00:07 5.3 °F /  -14.8 °C 4.4 °F /  -15.3 °C 1023.2 in /  34645.6 hPa NE 1.6 mph /  2.6 km/h 3.2 mph /  5.1 km/h 94 % 0.0 in /  0 mm
00:12 5.3 °F /  -14.8 °C 4.6 °F /  -15.2 °C 1023.2 in /  34645.6 hPa Calm   4.8 mph /  7.7 km/h 95 % 0.0 in /  0 mm
00:17 5.3 °F /  -14.8 °C 4.6 °F /  -15.2 °C 1022.9 in /  34635.4 hPa Calm   4.8 mph /  7.7 km/h 95 % 0.0 in /  0 mm
00:22 5.3 °F /  -14.8 °C 4.6 °F /  -15.2 °C 1022.9 in /  34635.4 hPa North 1.6 mph /  2.6 km/h 6.4 mph /  10.3 km/h 95 % 0.0 in /  0 mm
00:32 5.3 °F /  -14.8 °C 4.6 °F /  -15.2 °C 1022.9 in /  34635.4 hPa Calm   6.4 mph /  10.3 km/h 95 % 0.0 in /  0 mm
00:42 5.2 °F /  -14.9 °C 4.5 °F /  -15.3 °C 1022.9 in /  34635.4 hPa Calm   1.6 mph /  2.6 km/h 95 % 0.0 in /  0 mm
00:47 5.2 °F /  -14.9 °C 4.5 °F /  -15.3 °C 1022.9 in /  34635.4 hPa Calm   1.6 mph /  2.6 km/h 95 % 0.0 in /  0 mm
00:52 5.2 °F /  -14.9 °C 4.5 °F /  -15.3 °C 1023.2 in /  34645.6 hPa Calm   1.6 mph /  2.6 km/h 95 % 0.0 in /  0 mm
01:02 5.2 °F /  -14.9 °C 4.5 °F /  -15.3 °C 1023.2 in /  34645.6 hPa Calm   4.8 mph /  7.7 km/h 95 % 0.0 in /  0 mm
01:07 5.2 °F /  -14.9 °C 4.5 °F /  -15.3 °C 1023.2 in /  34645.6 hPa North 1.6 mph /  2.6 km/h 4.8 mph /  7.7 km/h 95 % 0.0 in /  0 mm
01:12 5.2 °F /  -14.9 °C 4.5 °F /  -15.3 °C 1023.2 in /  34645.6 hPa Calm   4.8 mph /  7.7 km/h 95 % 0.0 in /  0 mm
01:17 5.2 °F /  -14.9 °C 4.5 °F /  -15.3 °C 1023.2 in /  34645.6 hPa Calm   3.2 mph /  5.1 km/h 95 % 0.0 in /  0 mm
01:22 5.1 °F /  -14.9 °C 4.4 °F /  -15.3 °C 1023.2 in /  34645.6 hPa Calm   3.2 mph /  5.1 km/h 95 % 0.0 in /  0 mm
01:27 5.1 °F /  -14.9 °C 4.4 °F /  -15.3 °C 1023.2 in /  34645.6 hPa Calm   3.2 mph /  5.1 km/h 95 % 0.0 in /  0 mm
01:32 5.1 °F /  -14.9 °C 4.4 °F /  -15.3 °C 1023.2 in /  34645.6 hPa Calm   1.6 mph /  2.6 km/h 95 % 0.0 in /  0 mm
01:37 5.0 °F /  -15 °C 4.3 °F /  -15.4 °C 1023.2 in /  34645.6 hPa Calm   1.6 mph /  2.6 km/h 95 % 0.0 in /  0 mm
01:42 5.0 °F /  -15 °C 4.3 °F /  -15.4 °C 1023.2 in /  34645.6 hPa Calm   1.6 mph /  2.6 km/h 95 % 0.0 in /  0 mm
01:47 4.9 °F /  -15.1 °C 4.2 °F /  -15.4 °C 1023.2 in /  34645.6 hPa Calm   1.6 mph /  2.6 km/h 95 % 0.0 in /  0 mm
01:52 4.9 °F /  -15.1 °C 4.2 °F /  -15.4 °C 1023.2 in /  34645.6 hPa Calm   1.6 mph /  2.6 km/h 95 % 0.0 in /  0 mm
01:57 4.9 °F /  -15.1 °C 4.2 °F /  -15.4 °C 1023.2 in /  34645.6 hPa Calm   1.6 mph /  2.6 km/h 95 % 0.0 in /  0 mm
02:02 4.9 °F /  -15.1 °C 4.2 °F /  -15.4 °C 1023.2 in /  34645.6 hPa Calm   1.6 mph /  2.6 km/h 95 % 0.0 in /  0 mm
02:07 4.8 °F /  -15.1 °C 4.1 °F /  -15.5 °C 1023.2 in /  34645.6 hPa Calm   1.6 mph /  2.6 km/h 95 % 0.0 in /  0 mm
02:12 4.8 °F /  -15.1 °C 4.1 °F /  -15.5 °C 1023.2 in /  34645.6 hPa North 1.6 mph /  2.6 km/h 3.2 mph /  5.1 km/h 95 % 0.0 in /  0 mm
02:17 4.8 °F /  -15.1 °C 4.1 °F /  -15.5 °C 1023.2 in /  34645.6 hPa NW 3.2 mph /  5.1 km/h 3.2 mph /  5.1 km/h 95 % 0.0 in /  0 mm
02:22 4.8 °F /  -15.1 °C 4.1 °F /  -15.5 °C 1023.2 in /  34645.6 hPa NW 1.6 mph /  2.6 km/h 3.2 mph /  5.1 km/h 95 % 0.0 in /  0 mm
02:27 4.8 °F /  -15.1 °C 4.1 °F /  -15.5 °C 1023.6 in /  34659.1 hPa Calm   3.2 mph /  5.1 km/h 95 % 0.0 in /  0 mm
02:32 4.8 °F /  -15.1 °C 3.9 °F /  -15.6 °C 1023.6 in /  34659.1 hPa Calm   3.2 mph /  5.1 km/h 94 % 0.0 in /  0 mm
02:37 4.7 °F /  -15.2 °C 3.8 °F /  -15.7 °C 1023.6 in /  34659.1 hPa Calm   3.2 mph /  5.1 km/h 94 % 0.0 in /  0 mm
02:42 4.7 °F /  -15.2 °C 3.8 °F /  -15.7 °C 1023.6 in /  34659.1 hPa Calm   3.2 mph /  5.1 km/h 94 % 0.0 in /  0 mm
02:47 4.8 °F /  -15.1 °C 3.9 °F /  -15.6 °C 1023.6 in /  34659.1 hPa Calm   3.2 mph /  5.1 km/h 94 % 0.0 in /  0 mm
02:52 4.8 °F /  -15.1 °C 3.9 °F /  -15.6 °C 1023.6 in /  34659.1 hPa Calm   1.6 mph /  2.6 km/h 94 % 0.0 in /  0 mm
02:57 4.8 °F /  -15.1 °C 3.9 °F /  -15.6 °C 1023.6 in /  34659.1 hPa Calm   1.6 mph /  2.6 km/h 94 % 0.0 in /  0 mm
03:02 4.8 °F /  -15.1 °C 3.9 °F /  -15.6 °C 1023.6 in /  34659.1 hPa Calm   1.6 mph /  2.6 km/h 94 % 0.0 in /  0 mm
03:07 4.2 °F /  -15.4 °C 3.3 °F /  -15.9 °C 1023.2 in /  34645.6 hPa Calm   1.6 mph /  2.6 km/h 94 % 0.0 in /  0 mm
03:12 4.2 °F /  -15.4 °C 3.3 °F /  -15.9 °C 1023.2 in /  34645.6 hPa Calm   1.6 mph /  2.6 km/h 94 % 0.0 in /  0 mm
03:17 4.2 °F /  -15.4 °C 3.3 °F /  -15.9 °C 1023.2 in /  34645.6 hPa Calm   1.6 mph /  2.6 km/h 94 % 0.0 in /  0 mm
08:57 4.7 °F /  -15.2 °C 3.4 °F /  -15.9 °C 1026.3 in /  34750.5 hPa NW 1.6 mph /  2.6 km/h -1607.4 mph /  -2586.8 km/h 91 % 0 in /  0 mm
09:02 4.7 °F /  -15.2 °C 3.4 °F /  -15.9 °C 1026.3 in /  34750.5 hPa NNE 1.6 mph /  2.6 km/h 6.4 mph /  10.3 km/h 91 % 0.0 in /  0 mm
09:12 4.8 °F /  -15.1 °C 3.5 °F /  -15.8 °C 1026.6 in /  34760.7 hPa NNW 3.2 mph /  5.1 km/h 6.4 mph /  10.3 km/h 91 % 0.0 in /  0 mm
09:17 4.8 °F /  -15.1 °C 3.5 °F /  -15.8 °C 1026.6 in /  34760.7 hPa Calm   8.0 mph /  12.9 km/h 91 % 0.0 in /  0 mm
09:22 4.8 °F /  -15.1 °C 3.5 °F /  -15.8 °C 1026.6 in /  34760.7 hPa Calm   8.0 mph /  12.9 km/h 91 % 0.0 in /  0 mm
09:32 4.9 °F /  -15.1 °C 3.6 °F /  -15.8 °C 1026.6 in /  34760.7 hPa Calm   4.8 mph /  7.7 km/h 91 % 0.0 in /  0 mm
09:37 4.9 °F /  -15.1 °C 3.6 °F /  -15.8 °C 1026.6 in /  34760.7 hPa NE 6.4 mph /  10.3 km/h 6.4 mph /  10.3 km/h 91 % 0.0 in /  0 mm
09:42 5.0 °F /  -15 °C 3.5 °F /  -15.8 °C 1026.6 in /  34760.7 hPa Calm   8.0 mph /  12.9 km/h 90 % 0.0 in /  0 mm
09:47 5.0 °F /  -15 °C 3.5 °F /  -15.8 °C 1026.6 in /  34760.7 hPa NNE 6.4 mph /  10.3 km/h 8.0 mph /  12.9 km/h 90 % 0.0 in /  0 mm
09:52 5.1 °F /  -14.9 °C 3.6 °F /  -15.8 °C 1026.6 in /  34760.7 hPa NNE 3.2 mph /  5.1 km/h 9.7 mph /  15.6 km/h 90 % 0.0 in /  0 mm
09:57 5.1 °F /  -14.9 °C 3.6 °F /  -15.8 °C 1026.6 in /  34760.7 hPa NNE 1.6 mph /  2.6 km/h 9.7 mph /  15.6 km/h 90 % 0.0 in /  0 mm
10:07 5.1 °F /  -14.9 °C 3.4 °F /  -15.9 °C 1027.0 in /  34774.2 hPa NNE 3.2 mph /  5.1 km/h 6.4 mph /  10.3 km/h 89 % 0.0 in /  0 mm
10:12 5.1 °F /  -14.9 °C 3.4 °F /  -15.9 °C 1026.6 in /  34760.7 hPa North 3.2 mph /  5.1 km/h 6.4 mph /  10.3 km/h 89 % 0.0 in /  0 mm
10:17 5.2 °F /  -14.9 °C 3.5 °F /  -15.8 °C 1026.6 in /  34760.7 hPa NNW 3.2 mph /  5.1 km/h 8.0 mph /  12.9 km/h 89 % 0.0 in /  0 mm
10:22 5.2 °F /  -14.9 °C 3.5 °F /  -15.8 °C 1027.0 in /  34774.2 hPa NNW 3.2 mph /  5.1 km/h 8.0 mph /  12.9 km/h 89 % 0.0 in /  0 mm
10:32 5.3 °F /  -14.8 °C 3.5 °F /  -15.8 °C 1027.0 in /  34774.2 hPa NE 3.2 mph /  5.1 km/h 8.0 mph /  12.9 km/h 88 % 0.0 in /  0 mm
10:42 5.3 °F /  -14.8 °C 3.5 °F /  -15.8 °C 1026.6 in /  34760.7 hPa ENE 3.2 mph /  5.1 km/h 4.8 mph /  7.7 km/h 88 % 0.0 in /  0 mm
10:47 5.4 °F /  -14.8 °C 3.6 °F /  -15.8 °C 1026.6 in /  34760.7 hPa NNE 3.2 mph /  5.1 km/h 4.8 mph /  7.7 km/h 88 % 0.0 in /  0 mm
10:57 5.5 °F /  -14.7 °C 3.7 °F /  -15.7 °C 1026.6 in /  34760.7 hPa NE 1.6 mph /  2.6 km/h 4.8 mph /  7.7 km/h 88 % 0.0 in /  0 mm
11:02 5.5 °F /  -14.7 °C 3.7 °F /  -15.7 °C 1027.0 in /  34774.2 hPa Calm   4.8 mph /  7.7 km/h 88 % 0.0 in /  0 mm
11:12 5.7 °F /  -14.6 °C 3.9 °F /  -15.6 °C 1027.0 in /  34774.2 hPa Calm   3.2 mph /  5.1 km/h 88 % 0.0 in /  0 mm
11:17 5.7 °F /  -14.6 °C 3.7 °F /  -15.7 °C 1027.0 in /  34774.2 hPa Calm   3.2 mph /  5.1 km/h 87 % 0.0 in /  0 mm
11:22 5.8 °F /  -14.6 °C 3.8 °F /  -15.7 °C 1027.0 in /  34774.2 hPa Calm   1.6 mph /  2.6 km/h 87 % 0.0 in /  0 mm
11:27 5.9 °F /  -14.5 °C 3.9 °F /  -15.6 °C 1027.0 in /  34774.2 hPa Calm   1.6 mph /  2.6 km/h 87 % 0.0 in /  0 mm
11:32 5.9 °F /  -14.5 °C 3.7 °F /  -15.7 °C 1027.0 in /  34774.2 hPa Calm   1.6 mph /  2.6 km/h 86 % 0.0 in /  0 mm
11:37 6.0 °F /  -14.4 °C 3.8 °F /  -15.7 °C 1027.0 in /  34774.2 hPa Calm   1.6 mph /  2.6 km/h 86 % 0.0 in /  0 mm
11:42 6.1 °F /  -14.4 °C 3.9 °F /  -15.6 °C 1027.0 in /  34774.2 hPa Calm   1.6 mph /  2.6 km/h 86 % 0.0 in /  0 mm
11:47 6.2 °F /  -14.3 °C 4.0 °F /  -15.6 °C 1027.0 in /  34774.2 hPa Calm   1.6 mph /  2.6 km/h 86 % 0.0 in /  0 mm
11:52 6.2 °F /  -14.3 °C 3.9 °F /  -15.6 °C 1027.0 in /  34774.2 hPa Calm   1.6 mph /  2.6 km/h 85 % 0.0 in /  0 mm
11:57 6.1 °F /  -14.4 °C 3.8 °F /  -15.7 °C 1027.0 in /  34774.2 hPa Calm   3.2 mph /  5.1 km/h 85 % 0.0 in /  0 mm
12:02 6.2 °F /  -14.3 °C 4.0 °F /  -15.6 °C 1027.0 in /  34774.2 hPa Calm   3.2 mph /  5.1 km/h 86 % 0.0 in /  0 mm
12:07 6.2 °F /  -14.3 °C 3.9 °F /  -15.6 °C 1027.0 in /  34774.2 hPa Calm   3.2 mph /  5.1 km/h 85 % 0.0 in /  0 mm
12:12 6.3 °F /  -14.3 °C 4.0 °F /  -15.6 °C 1027.0 in /  34774.2 hPa Calm   3.2 mph /  5.1 km/h 85 % 0.0 in /  0 mm
12:17 6.5 °F /  -14.2 °C 4.2 °F /  -15.4 °C 1027.0 in /  34774.2 hPa Calm   1.6 mph /  2.6 km/h 85 % 0.0 in /  0 mm
12:22 6.5 °F /  -14.2 °C 4.0 °F /  -15.6 °C 1027.0 in /  34774.2 hPa Calm   1.6 mph /  2.6 km/h 84 % 0.0 in /  0 mm
12:32 6.8 °F /  -14 °C 4.1 °F /  -15.5 °C 1026.6 in /  34760.7 hPa NNW 1.6 mph /  2.6 km/h 1.6 mph /  2.6 km/h 83 % 0.0 in /  0 mm
12:42 6.8 °F /  -14 °C 4.1 °F /  -15.5 °C 1026.6 in /  34760.7 hPa Calm   3.2 mph /  5.1 km/h 83 % 0.0 in /  0 mm
12:47 6.7 °F /  -14.1 °C 4.0 °F /  -15.6 °C 1026.6 in /  34760.7 hPa NE 1.6 mph /  2.6 km/h 3.2 mph /  5.1 km/h 83 % 0.0 in /  0 mm
12:52 6.8 °F /  -14 °C 4.1 °F /  -15.5 °C 1026.6 in /  34760.7 hPa NNE 1.6 mph /  2.6 km/h 3.2 mph /  5.1 km/h 83 % 0.0 in /  0 mm
12:57 6.8 °F /  -14 °C 4.1 °F /  -15.5 °C 1026.6 in /  34760.7 hPa Calm   3.2 mph /  5.1 km/h 83 % 0.0 in /  0 mm
13:02 6.8 °F /  -14 °C 4.1 °F /  -15.5 °C 1026.6 in /  34760.7 hPa Calm   3.2 mph /  5.1 km/h 83 % 0.0 in /  0 mm
13:07 6.9 °F /  -13.9 °C 4.2 °F /  -15.4 °C 1026.6 in /  34760.7 hPa Calm   3.2 mph /  5.1 km/h 83 % 0.0 in /  0 mm
13:12 7.0 °F /  -13.9 °C 4.3 °F /  -15.4 °C 1026.6 in /  34760.7 hPa Calm   3.2 mph /  5.1 km/h 83 % 0.0 in /  0 mm
13:17 7.1 °F /  -13.8 °C 4.4 °F /  -15.3 °C 1026.6 in /  34760.7 hPa Calm   1.6 mph /  2.6 km/h 83 % 0.0 in /  0 mm
13:22 7.1 °F /  -13.8 °C 4.2 °F /  -15.4 °C 1026.3 in /  34750.5 hPa Calm   1.6 mph /  2.6 km/h 82 % 0.0 in /  0 mm
13:27 7.1 °F /  -13.8 °C 4.2 °F /  -15.4 °C 1026.3 in /  34750.5 hPa Calm   1.6 mph /  2.6 km/h 82 % 0.0 in /  0 mm
13:32 7.0 °F /  -13.9 °C 4.3 °F /  -15.4 °C 1026.3 in /  34750.5 hPa Calm   1.6 mph /  2.6 km/h 83 % 0.0 in /  0 mm
13:37 7.1 °F /  -13.8 °C 4.2 °F /  -15.4 °C 1026.3 in /  34750.5 hPa Calm   1.6 mph /  2.6 km/h 82 % 0.0 in /  0 mm
13:42 7.1 °F /  -13.8 °C 4.2 °F /  -15.4 °C 1026.3 in /  34750.5 hPa Calm     82 % 0.0 in /  0 mm
13:47 7.1 °F /  -13.8 °C 4.4 °F /  -15.3 °C 1026.3 in /  34750.5 hPa Calm     83 % 0.0 in /  0 mm
13:52 7.0 °F /  -13.9 °C 4.1 °F /  -15.5 °C 1026.3 in /  34750.5 hPa Calm   3.2 mph /  5.1 km/h 82 % 0.0 in /  0 mm
13:57 7.0 °F /  -13.9 °C 4.3 °F /  -15.4 °C 1026.3 in /  34750.5 hPa Calm   3.2 mph /  5.1 km/h 83 % 0.0 in /  0 mm
14:02 7.1 °F /  -13.8 °C 4.4 °F /  -15.3 °C 1026.3 in /  34750.5 hPa Calm   3.2 mph /  5.1 km/h 83 % 0.0 in /  0 mm
14:07 7.1 °F /  -13.8 °C 4.4 °F /  -15.3 °C 1026.6 in /  34760.7 hPa Calm   3.2 mph /  5.1 km/h 83 % 0.0 in /  0 mm
14:12 7.1 °F /  -13.8 °C 4.6 °F /  -15.2 °C 1026.6 in /  34760.7 hPa NNE 1.6 mph /  2.6 km/h 3.2 mph /  5.1 km/h 84 % 0.0 in /  0 mm
14:17 7.1 °F /  -13.8 °C 4.6 °F /  -15.2 °C 1026.3 in /  34750.5 hPa Calm   3.2 mph /  5.1 km/h 84 % 0.0 in /  0 mm
14:22 7.2 °F /  -13.8 °C 4.7 °F /  -15.2 °C 1026.3 in /  34750.5 hPa Calm   1.6 mph /  2.6 km/h 84 % 0.0 in /  0 mm
14:27 7.2 °F /  -13.8 °C 4.7 °F /  -15.2 °C 1026.6 in /  34760.7 hPa Calm   1.6 mph /  2.6 km/h 84 % 0.0 in /  0 mm
14:32 7.3 °F /  -13.7 °C 4.8 °F /  -15.1 °C 1026.3 in /  34750.5 hPa Calm   1.6 mph /  2.6 km/h 84 % 0.0 in /  0 mm
14:37 7.4 °F /  -13.7 °C 4.9 °F /  -15.1 °C 1026.6 in /  34760.7 hPa Calm   3.2 mph /  5.1 km/h 84 % 0.0 in /  0 mm
14:42 7.4 °F /  -13.7 °C 4.7 °F /  -15.2 °C 1026.3 in /  34750.5 hPa NNW 3.2 mph /  5.1 km/h 3.2 mph /  5.1 km/h 83 % 0.0 in /  0 mm
14:47 7.4 °F /  -13.7 °C 4.7 °F /  -15.2 °C 1026.3 in /  34750.5 hPa NW 1.6 mph /  2.6 km/h 4.8 mph /  7.7 km/h 83 % 0.0 in /  0 mm
14:52 7.4 °F /  -13.7 °C 4.7 °F /  -15.2 °C 1026.3 in /  34750.5 hPa Calm   4.8 mph /  7.7 km/h 83 % 0.0 in /  0 mm
14:57 7.4 °F /  -13.7 °C 4.5 °F /  -15.3 °C 1026.3 in /  34750.5 hPa Calm   4.8 mph /  7.7 km/h 82 % 0.0 in /  0 mm
15:02 7.5 °F /  -13.6 °C 4.5 °F /  -15.3 °C 1026.3 in /  34750.5 hPa Calm   3.2 mph /  5.1 km/h 81 % 0.0 in /  0 mm
15:07 7.6 °F /  -13.6 °C 4.5 °F /  -15.3 °C 1026.3 in /  34750.5 hPa NW 1.6 mph /  2.6 km/h 4.8 mph /  7.7 km/h 81 % 0.0 in /  0 mm
15:12 7.6 °F /  -13.6 °C 4.4 °F /  -15.3 °C 1026.3 in /  34750.5 hPa Calm   6.4 mph /  10.3 km/h 80 % 0.0 in /  0 mm
15:17 7.6 °F /  -13.6 °C 4.4 °F /  -15.3 °C 1026.3 in /  34750.5 hPa Calm   6.4 mph /  10.3 km/h 80 % 0.0 in /  0 mm
15:22 7.6 °F /  -13.6 °C 4.2 °F /  -15.4 °C 1026.3 in /  34750.5 hPa North 1.6 mph /  2.6 km/h 6.4 mph /  10.3 km/h 79 % 0.0 in /  0 mm
15:27 7.6 °F /  -13.6 °C 4.2 °F /  -15.4 °C 1026.6 in /  34760.7 hPa North 1.6 mph /  2.6 km/h 4.8 mph /  7.7 km/h 79 % 0.0 in /  0 mm
15:32 7.7 °F /  -13.5 °C 4.5 °F /  -15.3 °C 1026.6 in /  34760.7 hPa NNW 1.6 mph /  2.6 km/h 4.8 mph /  7.7 km/h 80 % 0.0 in /  0 mm
15:37 7.7 °F /  -13.5 °C 4.3 °F /  -15.4 °C 1026.6 in /  34760.7 hPa Calm   4.8 mph /  7.7 km/h 79 % 0.0 in /  0 mm
15:42 7.8 °F /  -13.4 °C 4.4 °F /  -15.3 °C 1026.6 in /  34760.7 hPa West 1.6 mph /  2.6 km/h 4.8 mph /  7.7 km/h 79 % 0.0 in /  0 mm
15:47 7.8 °F /  -13.4 °C 4.2 °F /  -15.4 °C 1026.6 in /  34760.7 hPa Calm   6.4 mph /  10.3 km/h 78 % 0.0 in /  0 mm
15:52 7.8 °F /  -13.4 °C 4.4 °F /  -15.3 °C 1026.6 in /  34760.7 hPa Calm   8.0 mph /  12.9 km/h 79 % 0.0 in /  0 mm
15:57 7.8 °F /  -13.4 °C 4.6 °F /  -15.2 °C 1026.6 in /  34760.7 hPa Calm   8.0 mph /  12.9 km/h 80 % 0.0 in /  0 mm
16:02 7.9 °F /  -13.4 °C 4.7 °F /  -15.2 °C 1026.6 in /  34760.7 hPa WNW 1.6 mph /  2.6 km/h 3.2 mph /  5.1 km/h 80 % 0.0 in /  0 mm
16:12 7.8 °F /  -13.4 °C 4.7 °F /  -15.2 °C 1026.6 in /  34760.7 hPa NW 4.8 mph /  7.7 km/h 4.8 mph /  7.7 km/h 81 % 0.0 in /  0 mm
16:17 7.8 °F /  -13.4 °C 4.7 °F /  -15.2 °C 1026.6 in /  34760.7 hPa NW 3.2 mph /  5.1 km/h 4.8 mph /  7.7 km/h 81 % 0.0 in /  0 mm
16:22 7.7 °F /  -13.5 °C 4.6 °F /  -15.2 °C 1026.6 in /  34760.7 hPa Calm   6.4 mph /  10.3 km/h 81 % 0.0 in /  0 mm
16:27 7.7 °F /  -13.5 °C 4.6 °F /  -15.2 °C 1026.6 in /  34760.7 hPa NW 3.2 mph /  5.1 km/h 6.4 mph /  10.3 km/h 81 % 0.0 in /  0 mm
16:32 7.7 °F /  -13.5 °C 4.6 °F /  -15.2 °C 1027.0 in /  34774.2 hPa NNW 1.6 mph /  2.6 km/h 6.4 mph /  10.3 km/h 81 % 0.0 in /  0 mm
16:37 7.7 °F /  -13.5 °C 4.6 °F /  -15.2 °C 1027.0 in /  34774.2 hPa NW 1.6 mph /  2.6 km/h 6.4 mph /  10.3 km/h 81 % 0.0 in /  0 mm
16:42 7.7 °F /  -13.5 °C 4.6 °F /  -15.2 °C 1027.0 in /  34774.2 hPa Calm   4.8 mph /  7.7 km/h 81 % 0.0 in /  0 mm
16:47 7.7 °F /  -13.5 °C 4.6 °F /  -15.2 °C 1027.0 in /  34774.2 hPa Calm   4.8 mph /  7.7 km/h 81 % 0.0 in /  0 mm
16:52 7.6 °F /  -13.6 °C 4.7 °F /  -15.2 °C 1027.0 in /  34774.2 hPa Calm   3.2 mph /  5.1 km/h 82 % 0.0 in /  0 mm
16:57 7.6 °F /  -13.6 °C 4.7 °F /  -15.2 °C 1027.0 in /  34774.2 hPa Calm   1.6 mph /  2.6 km/h 82 % 0.0 in /  0 mm
17:02 7.6 °F /  -13.6 °C 4.7 °F /  -15.2 °C 1027.0 in /  34774.2 hPa Calm   1.6 mph /  2.6 km/h 82 % 0.0 in /  0 mm
17:07 7.6 °F /  -13.6 °C 4.7 °F /  -15.2 °C 1027.0 in /  34774.2 hPa Calm   1.6 mph /  2.6 km/h 82 % 0.0 in /  0 mm
17:12 7.6 °F /  -13.6 °C 4.7 °F /  -15.2 °C 1027.3 in /  34784.4 hPa Calm     82 % 0.0 in /  0 mm
17:17 7.5 °F /  -13.6 °C 4.6 °F /  -15.2 °C 1027.3 in /  34784.4 hPa Calm     82 % 0.0 in /  0 mm
17:22 7.5 °F /  -13.6 °C 4.6 °F /  -15.2 °C 1027.3 in /  34784.4 hPa Calm     82 % 0.0 in /  0 mm
17:27 7.4 °F /  -13.7 °C 4.5 °F /  -15.3 °C 1027.3 in /  34784.4 hPa Calm     82 % 0.0 in /  0 mm
17:32 7.4 °F /  -13.7 °C 4.7 °F /  -15.2 °C 1027.3 in /  34784.4 hPa Calm     83 % 0.0 in /  0 mm
17:37 7.4 °F /  -13.7 °C 4.7 °F /  -15.2 °C 1027.3 in /  34784.4 hPa Calm     83 % 0.0 in /  0 mm
17:42 7.3 °F /  -13.7 °C 4.6 °F /  -15.2 °C 1027.3 in /  34784.4 hPa Calm     83 % 0.0 in /  0 mm
17:47 7.3 °F /  -13.7 °C 4.8 °F /  -15.1 °C 1027.3 in /  34784.4 hPa Calm     84 % 0.0 in /  0 mm
17:52 7.3 °F /  -13.7 °C 4.8 °F /  -15.1 °C 1027.3 in /  34784.4 hPa Calm     84 % 0.0 in /  0 mm
17:57 7.2 °F /  -13.8 °C 4.7 °F /  -15.2 °C 1027.3 in /  34784.4 hPa Calm     84 % 0.0 in /  0 mm
18:02 7.2 °F /  -13.8 °C 4.8 °F /  -15.1 °C 1027.3 in /  34784.4 hPa Calm     85 % 0.0 in /  0 mm
18:12 7.1 °F /  -13.8 °C 4.9 °F /  -15.1 °C 1027.3 in /  34784.4 hPa Calm   3.2 mph /  5.1 km/h 86 % 0.0 in /  0 mm
18:17 6.9 °F /  -13.9 °C 4.9 °F /  -15.1 °C 1027.3 in /  34784.4 hPa Calm   3.2 mph /  5.1 km/h 87 % 0.0 in /  0 mm
18:22 6.9 °F /  -13.9 °C 4.9 °F /  -15.1 °C 1027.3 in /  34784.4 hPa Calm   1.6 mph /  2.6 km/h 87 % 0.0 in /  0 mm
18:32 6.7 °F /  -14.1 °C 4.9 °F /  -15.1 °C 1027.3 in /  34784.4 hPa Calm   3.2 mph /  5.1 km/h 88 % 0.0 in /  0 mm
18:42 6.7 °F /  -14.1 °C 5.0 °F /  -15 °C 1027.7 in /  34797.9 hPa SW 1.6 mph /  2.6 km/h 3.2 mph /  5.1 km/h 89 % 0.0 in /  0 mm
18:47 6.7 °F /  -14.1 °C 5.0 °F /  -15 °C 1027.7 in /  34797.9 hPa SW 1.6 mph /  2.6 km/h 3.2 mph /  5.1 km/h 89 % 0.0 in /  0 mm
18:52 6.7 °F /  -14.1 °C 5.2 °F /  -14.9 °C 1027.7 in /  34797.9 hPa SW 3.2 mph /  5.1 km/h 3.2 mph /  5.1 km/h 90 % 0.0 in /  0 mm
19:02 6.7 °F /  -14.1 °C 5.2 °F /  -14.9 °C 1027.7 in /  34797.9 hPa SSW 1.6 mph /  2.6 km/h 6.4 mph /  10.3 km/h 90 % 0.0 in /  0 mm
19:07 6.7 °F /  -14.1 °C 5.2 °F /  -14.9 °C 1028.0 in /  34808.1 hPa South 1.6 mph /  2.6 km/h 6.4 mph /  10.3 km/h 90 % 0.0 in /  0 mm
19:12 6.7 °F /  -14.1 °C 5.3 °F /  -14.8 °C 1028.0 in /  34808.1 hPa SSE 1.6 mph /  2.6 km/h 4.8 mph /  7.7 km/h 91 % 0.0 in /  0 mm
19:17 6.6 °F /  -14.1 °C 5.2 °F /  -14.9 °C 1028.0 in /  34808.1 hPa Calm   3.2 mph /  5.1 km/h 91 % 0.0 in /  0 mm
19:22 6.6 °F /  -14.1 °C 5.2 °F /  -14.9 °C 1028.0 in /  34808.1 hPa Calm   3.2 mph /  5.1 km/h 91 % 0.0 in /  0 mm
19:27 6.6 °F /  -14.1 °C 5.2 °F /  -14.9 °C 1028.0 in /  34808.1 hPa Calm   1.6 mph /  2.6 km/h 91 % 0.0 in /  0 mm
19:32 6.5 °F /  -14.2 °C 5.1 °F /  -14.9 °C 1028.0 in /  34808.1 hPa SE 1.6 mph /  2.6 km/h 1.6 mph /  2.6 km/h 91 % 0.0 in /  0 mm
19:37 6.5 °F /  -14.2 °C 5.1 °F /  -14.9 °C 1027.7 in /  34797.9 hPa SE 1.6 mph /  2.6 km/h 1.6 mph /  2.6 km/h 91 % 0.0 in /  0 mm
19:42 6.4 °F /  -14.2 °C 5.0 °F /  -15 °C 1027.7 in /  34797.9 hPa Calm   3.2 mph /  5.1 km/h 91 % 0.0 in /  0 mm
19:47 6.4 °F /  -14.2 °C 5.0 °F /  -15 °C 1027.7 in /  34797.9 hPa SSE 1.6 mph /  2.6 km/h 4.8 mph /  7.7 km/h 91 % 0.0 in /  0 mm
19:52 6.3 °F /  -14.3 °C 5.1 °F /  -14.9 °C 1028.0 in /  34808.1 hPa WSW 1.6 mph /  2.6 km/h 8.0 mph /  12.9 km/h 92 % 0.0 in /  0 mm
19:57 6.3 °F /  -14.3 °C 5.1 °F /  -14.9 °C 1028.0 in /  34808.1 hPa Calm   8.0 mph /  12.9 km/h 92 % 0.0 in /  0 mm
20:02 6.3 °F /  -14.3 °C 5.1 °F /  -14.9 °C 1028.0 in /  34808.1 hPa SW 1.6 mph /  2.6 km/h 8.0 mph /  12.9 km/h 92 % 0.0 in /  0 mm
20:07 6.3 °F /  -14.3 °C 5.1 °F /  -14.9 °C 1028.0 in /  34808.1 hPa Calm   6.4 mph /  10.3 km/h 92 % 0.0 in /  0 mm
20:12 6.2 °F /  -14.3 °C 5.0 °F /  -15 °C 1028.3 in /  34818.2 hPa Calm   3.2 mph /  5.1 km/h 92 % 0.0 in /  0 mm
20:17 6.2 °F /  -14.3 °C 5.0 °F /  -15 °C 1028.3 in /  34818.2 hPa Calm   3.2 mph /  5.1 km/h 92 % 0.0 in /  0 mm
20:22 6.2 °F /  -14.3 °C 5.0 °F /  -15 °C 1028.0 in /  34808.1 hPa SW 1.6 mph /  2.6 km/h 1.6 mph /  2.6 km/h 92 % 0.0 in /  0 mm
20:32 6.1 °F /  -14.4 °C 4.9 °F /  -15.1 °C 1028.0 in /  34808.1 hPa SSW 3.2 mph /  5.1 km/h 3.2 mph /  5.1 km/h 92 % 0.0 in /  0 mm
20:37 6.1 °F /  -14.4 °C 4.9 °F /  -15.1 °C 1028.0 in /  34808.1 hPa SW 3.2 mph /  5.1 km/h 3.2 mph /  5.1 km/h 92 % 0.0 in /  0 mm
20:42 6.1 °F /  -14.4 °C 4.9 °F /  -15.1 °C 1028.0 in /  34808.1 hPa SSW 1.6 mph /  2.6 km/h 4.8 mph /  7.7 km/h 92 % 0.0 in /  0 mm
20:47 5.9 °F /  -14.5 °C 4.7 °F /  -15.2 °C 1028.3 in /  34818.2 hPa Calm   4.8 mph /  7.7 km/h 92 % 0.0 in /  0 mm
20:52 5.9 °F /  -14.5 °C 4.9 °F /  -15.1 °C 1028.3 in /  34818.2 hPa SW 1.6 mph /  2.6 km/h 3.2 mph /  5.1 km/h 93 % 0.0 in /  0 mm
20:57 5.8 °F /  -14.6 °C 4.8 °F /  -15.1 °C 1028.3 in /  34818.2 hPa Calm   3.2 mph /  5.1 km/h 93 % 0.0 in /  0 mm
21:02 5.8 °F /  -14.6 °C 4.8 °F /  -15.1 °C 1028.3 in /  34818.2 hPa Calm   3.2 mph /  5.1 km/h 93 % 0.0 in /  0 mm
21:12 5.7 °F /  -14.6 °C 4.7 °F /  -15.2 °C 1028.3 in /  34818.2 hPa WSW 1.6 mph /  2.6 km/h 1.6 mph /  2.6 km/h 93 % 0.0 in /  0 mm
21:17 5.7 °F /  -14.6 °C 4.7 °F /  -15.2 °C 1028.0 in /  34808.1 hPa SW 1.6 mph /  2.6 km/h 3.2 mph /  5.1 km/h 93 % 0.0 in /  0 mm
21:22 5.7 °F /  -14.6 °C 4.7 °F /  -15.2 °C 1028.0 in /  34808.1 hPa WSW 1.6 mph /  2.6 km/h 6.4 mph /  10.3 km/h 93 % 0.0 in /  0 mm
21:32 5.8 °F /  -14.6 °C 4.8 °F /  -15.1 °C 1028.3 in /  34818.2 hPa WSW 3.2 mph /  5.1 km/h 6.4 mph /  10.3 km/h 93 % 0.0 in /  0 mm
21:37 5.9 °F /  -14.5 °C 4.7 °F /  -15.2 °C 1028.3 in /  34818.2 hPa West 3.2 mph /  5.1 km/h 6.4 mph /  10.3 km/h 92 % 0.0 in /  0 mm
21:42 5.9 °F /  -14.5 °C 4.7 °F /  -15.2 °C 1028.3 in /  34818.2 hPa WSW 6.4 mph /  10.3 km/h 6.4 mph /  10.3 km/h 92 % 0.0 in /  0 mm
21:47 6.0 °F /  -14.4 °C 4.8 °F /  -15.1 °C 1028.3 in /  34818.2 hPa WSW 3.2 mph /  5.1 km/h 9.7 mph /  15.6 km/h 92 % 0.0 in /  0 mm
21:52 6.1 °F /  -14.4 °C 4.9 °F /  -15.1 °C 1028.3 in /  34818.2 hPa Calm   9.7 mph /  15.6 km/h 92 % 0.0 in /  0 mm
21:57 6.1 °F /  -14.4 °C 4.9 °F /  -15.1 °C 1028.3 in /  34818.2 hPa West 1.6 mph /  2.6 km/h 9.7 mph /  15.6 km/h 92 % 0.0 in /  0 mm
22:02 6.1 °F /  -14.4 °C 4.9 °F /  -15.1 °C 1028.3 in /  34818.2 hPa West 1.6 mph /  2.6 km/h 8.0 mph /  12.9 km/h 92 % 0.0 in /  0 mm
22:07 6.1 °F /  -14.4 °C 4.9 °F /  -15.1 °C 1028.3 in /  34818.2 hPa Calm   6.4 mph /  10.3 km/h 92 % 0.0 in /  0 mm
22:12 6.1 °F /  -14.4 °C 4.9 °F /  -15.1 °C 1028.7 in /  34831.8 hPa West 1.6 mph /  2.6 km/h 6.4 mph /  10.3 km/h 92 % 0.0 in /  0 mm
22:17 6.1 °F /  -14.4 °C 4.9 °F /  -15.1 °C 1028.7 in /  34831.8 hPa Calm   3.2 mph /  5.1 km/h 92 % 0.0 in /  0 mm
22:22 6.1 °F /  -14.4 °C 4.9 °F /  -15.1 °C 1028.3 in /  34818.2 hPa Calm   3.2 mph /  5.1 km/h 92 % 0.0 in /  0 mm
22:27 6.1 °F /  -14.4 °C 4.9 °F /  -15.1 °C 1028.7 in /  34831.8 hPa Calm   1.6 mph /  2.6 km/h 92 % 0.0 in /  0 mm
22:32 6.1 °F /  -14.4 °C 4.9 °F /  -15.1 °C 1028.3 in /  34818.2 hPa Calm     92 % 0.0 in /  0 mm
22:37 6.1 °F /  -14.4 °C 4.9 °F /  -15.1 °C 1028.3 in /  34818.2 hPa Calm   1.6 mph /  2.6 km/h 92 % 0.0 in /  0 mm
22:42 6.1 °F /  -14.4 °C 4.9 °F /  -15.1 °C 1028.3 in /  34818.2 hPa Calm   1.6 mph /  2.6 km/h 92 % 0.0 in /  0 mm
22:47 6.1 °F /  -14.4 °C 4.9 °F /  -15.1 °C 1028.7 in /  34831.8 hPa Calm   1.6 mph /  2.6 km/h 92 % 0.0 in /  0 mm
22:52 6.0 °F /  -14.4 °C 4.8 °F /  -15.1 °C 1028.3 in /  34818.2 hPa Calm     92 % 0.0 in /  0 mm
22:57 6.0 °F /  -14.4 °C 4.8 °F /  -15.1 °C 1028.3 in /  34818.2 hPa Calm     92 % 0.0 in /  0 mm
23:07 5.9 °F /  -14.5 °C 4.7 °F /  -15.2 °C 1028.0 in /  34808.1 hPa SSW 3.2 mph /  5.1 km/h 3.2 mph /  5.1 km/h 92 % 0.0 in /  0 mm
23:12 5.8 °F /  -14.6 °C 4.8 °F /  -15.1 °C 1027.7 in /  34797.9 hPa SSW 4.8 mph /  7.7 km/h 6.4 mph /  10.3 km/h 93 % 0.0 in /  0 mm
23:22 5.6 °F /  -14.7 °C 4.6 °F /  -15.2 °C 1027.7 in /  34797.9 hPa SW 3.2 mph /  5.1 km/h 6.4 mph /  10.3 km/h 93 % 0.0 in /  0 mm
23:27 5.4 °F /  -14.8 °C 4.4 °F /  -15.3 °C 1028.0 in /  34808.1 hPa SW 3.2 mph /  5.1 km/h 6.4 mph /  10.3 km/h 93 % 0.0 in /  0 mm
23:32 5.3 °F /  -14.8 °C 4.3 °F /  -15.4 °C 1028.0 in /  34808.1 hPa SW 1.6 mph /  2.6 km/h 6.4 mph /  10.3 km/h 93 % 0.0 in /  0 mm
23:37 5.2 °F /  -14.9 °C 4.2 °F /  -15.4 °C 1028.0 in /  34808.1 hPa SSW 1.6 mph /  2.6 km/h 4.8 mph /  7.7 km/h 93 % 0.0 in /  0 mm
23:42 5.1 °F /  -14.9 °C 4.2 °F /  -15.4 °C 1028.0 in /  34808.1 hPa SW 3.2 mph /  5.1 km/h 4.8 mph /  7.7 km/h 94 % 0.0 in /  0 mm
23:47 5.0 °F /  -15 °C 4.1 °F /  -15.5 °C 1028.0 in /  34808.1 hPa SW 1.6 mph /  2.6 km/h 4.8 mph /  7.7 km/h 94 % 0.0 in /  0 mm
23:52 5.1 °F /  -14.9 °C 4.2 °F /  -15.4 °C 1028.0 in /  34808.1 hPa WSW 1.6 mph /  2.6 km/h 4.8 mph /  7.7 km/h 94 % 0.0 in /  0 mm
23:57 5.2 °F /  -14.9 °C 4.3 °F /  -15.4 °C 1028.0 in /  34808.1 hPa Calm   4.8 mph /  7.7 km/h 94 % 0.0 in /  0 mm
Meteo18
Compliments of Weather Underground - 4 mb

Script developed by  Jim McMurry - jmcmurry@mwt.net Adapted for the template by  Wim van der Kuil - Leuven-Template.eu

You find our weather info also at:

European Weather Network

Weather Underground

Equipment we use:

Weather-station
Davis Vue

Weather-program
Meteobridge

Weather-server
Raspberry PI 2 B+

Provider
1 and 1

Davis Vue

Meteobridge

Raspberry PI 2 B+

1 and 1